Time;durP1;ratioP1;P1;durP2;ratioP2;P2;SDS_P1;SDS_P2;PMS_P1;PMS_P2;Temp;Humidity;BMP_temperature;BMP_pressure;BME280_temperature;BME280_humidity;BME280_pressure;Samples;Min_cycle;Max_cycle;Signal;HPM_P1;HPM_P2
2023/12/26 00:00:06;;;;;;;0.00;0.00;;;9.80;99.90;;;;;;5063336;28;20545;-82
2023/12/26 00:02:32;;;;;;;0.20;0.20;;;9.80;99.90;;;;;;5063908;28;20075;-78
2023/12/26 00:04:58;;;;;;;0.10;0.10;;;9.80;99.90;;;;;;5062156;28;20468;-77
2023/12/26 00:07:23;;;;;;;0.00;0.00;;;9.70;99.90;;;;;;5065835;28;20032;-82
2023/12/26 00:09:49;;;;;;;0.08;0.08;;;9.80;99.90;;;;;;5063851;28;20087;-79
2023/12/26 00:12:15;;;;;;;0.00;0.00;;;9.80;99.90;;;;;;5066842;28;20079;-74
2023/12/26 00:14:41;;;;;;;0.20;0.20;;;9.90;99.90;;;;;;5071995;28;20032;-74
2023/12/26 00:17:06;;;;;;;0.05;0.05;;;9.80;99.90;;;;;;5067562;28;20040;-75
2023/12/26 00:19:32;;;;;;;0.10;0.10;;;9.90;99.90;;;;;;5059822;28;20068;-78
2023/12/26 00:21:57;;;;;;;0.08;0.08;;;9.80;99.90;;;;;;5072818;28;20040;-77
2023/12/26 00:24:23;;;;;;;0.10;0.10;;;9.90;99.90;;;;;;5058370;28;20032;-79
2023/12/26 00:26:49;;;;;;;0.10;0.10;;;9.90;99.90;;;;;;5072547;28;20033;-84
2023/12/26 00:29:14;;;;;;;0.08;0.08;;;9.80;99.90;;;;;;5059803;28;20047;-77
2023/12/26 00:31:41;;;;;;;0.40;0.30;;;9.90;99.90;;;;;;5072995;28;20044;-73
2023/12/26 00:34:07;;;;;;;0.05;0.05;;;10.00;99.90;;;;;;5048835;28;20041;-74
2023/12/26 00:36:33;;;;;;;0.10;0.10;;;10.00;99.90;;;;;;5068352;28;20048;-74
2023/12/26 00:38:58;;;;;;;0.10;0.10;;;10.10;99.90;;;;;;5066260;28;20043;-75
2023/12/26 00:41:24;;;;;;;0.05;0.05;;;10.00;99.90;;;;;;5067161;28;20090;-75
2023/12/26 00:43:51;;;;;;;0.08;0.08;;;10.10;99.90;;;;;;5062961;28;20391;-71
2023/12/26 00:46:18;;;;;;;0.10;0.10;;;10.00;99.90;;;;;;5069612;28;20076;-78
2023/12/26 00:48:44;;;;;;;0.00;0.00;;;10.00;99.90;;;;;;5092391;28;20040;-67
2023/12/26 00:51:09;;;;;;;0.10;0.10;;;10.10;99.90;;;;;;5070017;28;20039;-71
2023/12/26 00:53:35;;;;;;;0.00;0.00;;;10.10;99.90;;;;;;5066717;28;20033;-70
2023/12/26 00:56:00;;;;;;;0.00;0.00;;;10.10;99.90;;;;;;5062964;28;20060;-71
2023/12/26 00:58:26;;;;;;;0.00;0.00;;;10.00;99.90;;;;;;5064291;28;20111;-70
2023/12/26 01:00:51;;;;;;;0.08;0.08;;;9.90;99.90;;;;;;5062643;28;20045;-71
2023/12/26 01:03:21;;;;;;;1.35;0.17;;;9.80;99.90;;;;;;5069108;28;20047;-73
2023/12/26 01:05:48;;;;;;;0.13;0.10;;;9.80;99.90;;;;;;5091772;28;20037;-70
2023/12/26 01:08:13;;;;;;;0.00;0.00;;;9.70;99.90;;;;;;5072480;28;20372;-69
2023/12/26 01:10:39;;;;;;;0.00;0.00;;;9.60;99.90;;;;;;5063338;28;20037;-72
2023/12/26 01:13:05;;;;;;;0.03;0.03;;;9.60;99.90;;;;;;5067462;28;20048;-71
2023/12/26 01:15:31;;;;;;;0.00;0.00;;;9.60;99.90;;;;;;5062276;28;20037;-75
2023/12/26 01:17:57;;;;;;;0.00;0.00;;;9.50;99.90;;;;;;5070386;28;20036;-75
2023/12/26 01:20:23;;;;;;;12.70;0.63;;;9.40;99.90;;;;;;5066695;28;20078;-72
2023/12/26 01:22:48;;;;;;;0.00;0.00;;;9.50;99.90;;;;;;5068130;28;20036;-74
2023/12/26 01:25:14;;;;;;;0.55;0.43;;;9.50;99.90;;;;;;5068182;28;20037;-72
2023/12/26 01:27:39;;;;;;;0.10;0.10;;;9.50;99.90;;;;;;5068517;28;20040;-72
2023/12/26 01:30:06;;;;;;;0.10;0.10;;;9.50;99.90;;;;;;5062534;28;20045;-78
2023/12/26 01:32:32;;;;;;;0.00;0.00;;;9.50;99.90;;;;;;5065969;28;20057;-73
2023/12/26 01:34:58;;;;;;;0.10;0.10;;;9.40;99.90;;;;;;5066928;28;20060;-74
2023/12/26 01:37:24;;;;;;;0.10;0.10;;;9.40;99.90;;;;;;5067615;28;20072;-73
2023/12/26 01:39:50;;;;;;;0.10;0.10;;;9.40;99.90;;;;;;5067409;28;20036;-71
2023/12/26 01:42:16;;;;;;;1.00;0.10;;;9.40;99.90;;;;;;5068174;28;20090;-77
2023/12/26 01:44:41;;;;;;;0.20;0.20;;;9.40;99.90;;;;;;5068085;28;20047;-71
2023/12/26 01:47:07;;;;;;;0.35;0.35;;;9.40;99.90;;;;;;5063528;28;20829;-72
2023/12/26 01:49:33;;;;;;;0.10;0.10;;;9.30;99.90;;;;;;5061616;28;20376;-73
2023/12/26 01:51:59;;;;;;;0.00;0.00;;;9.30;99.90;;;;;;5066384;28;20102;-78
2023/12/26 01:54:30;;;;;;;0.00;0.00;;;9.40;99.90;;;;;;5065777;28;20044;-79
2023/12/26 01:56:56;;;;;;;0.90;0.25;;;9.40;99.90;;;;;;5070882;28;20041;-79
2023/12/26 01:59:22;;;;;;;0.00;0.00;;;9.50;99.90;;;;;;5069788;28;20074;-74
2023/12/26 02:01:47;;;;;;;0.00;0.00;;;9.40;99.90;;;;;;5073167;28;20060;-73
2023/12/26 02:04:13;;;;;;;2.38;1.45;;;9.40;99.90;;;;;;5073625;28;20115;-75
2023/12/26 02:06:40;;;;;;;0.20;0.20;;;9.40;99.90;;;;;;5068276;28;20079;-73
2023/12/26 02:09:10;;;;;;;0.13;0.13;;;9.40;99.90;;;;;;5069890;28;20522;-76
2023/12/26 02:11:37;;;;;;;0.10;0.10;;;9.50;99.90;;;;;;5060547;28;20084;-78
2023/12/26 02:14:04;;;;;;;0.00;0.00;;;9.50;99.90;;;;;;5067919;28;20122;-77
2023/12/26 02:16:31;;;;;;;0.10;0.10;;;9.50;99.90;;;;;;5070017;28;20044;-79
2023/12/26 02:18:57;;;;;;;0.52;0.15;;;9.40;99.90;;;;;;5070353;28;20032;-74
2023/12/26 02:21:22;;;;;;;0.03;0.03;;;9.50;99.90;;;;;;5077922;28;20123;-78
2023/12/26 02:23:55;;;;;;;0.10;0.10;;;9.40;99.90;;;;;;5064451;28;20040;-80
2023/12/26 02:26:23;;;;;;;0.43;0.43;;;9.50;99.90;;;;;;5074517;28;20051;-79
2023/12/26 02:28:50;;;;;;;1.65;0.55;;;9.60;99.90;;;;;;5064858;28;20487;-78
2023/12/26 02:31:16;;;;;;;0.03;0.03;;;9.60;99.90;;;;;;5071822;28;20053;-81
2023/12/26 02:33:45;;;;;;;0.00;0.00;;;9.60;99.90;;;;;;5088814;28;20072;-77
2023/12/26 02:36:11;;;;;;;0.00;0.00;;;9.70;99.90;;;;;;5069220;28;20116;-77
2023/12/26 02:38:37;;;;;;;0.08;0.08;;;9.70;99.90;;;;;;5068640;28;20115;-78
2023/12/26 02:41:02;;;;;;;1.17;0.43;;;9.70;99.90;;;;;;5069709;28;20101;-74
2023/12/26 02:43:28;;;;;;;0.00;0.00;;;9.80;99.90;;;;;;5052315;28;20036;-75
2023/12/26 02:45:53;;;;;;;0.00;0.00;;;9.80;99.90;;;;;;5068626;28;20036;-81
2023/12/26 02:48:19;;;;;;;0.30;0.30;;;9.90;99.90;;;;;;5066843;28;20033;-77
2023/12/26 02:50:45;;;;;;;0.10;0.10;;;9.90;99.90;;;;;;5068900;28;20072;-77
2023/12/26 02:53:11;;;;;;;0.00;0.00;;;9.90;99.90;;;;;;5060826;28;20048;-82
2023/12/26 02:55:37;;;;;;;0.10;0.10;;;10.00;99.90;;;;;;5054119;28;20032;-80
2023/12/26 02:58:03;;;;;;;0.10;0.10;;;9.90;99.90;;;;;;5066897;28;20294;-78
2023/12/26 03:00:29;;;;;;;0.10;0.10;;;9.90;99.90;;;;;;5070405;28;20612;-78
2023/12/26 03:02:54;;;;;;;0.10;0.10;;;9.90;99.90;;;;;;5048760;28;20044;-76
2023/12/26 03:05:20;;;;;;;0.00;0.00;;;9.90;99.90;;;;;;5069144;28;20384;-79
2023/12/26 03:07:45;;;;;;;0.20;0.20;;;9.90;99.90;;;;;;5061362;28;20487;-79
2023/12/26 03:10:11;;;;;;;0.38;0.38;;;9.80;99.90;;;;;;5070241;28;20060;-80
2023/12/26 03:12:37;;;;;;;0.00;0.00;;;9.80;99.90;;;;;;5060296;28;20140;-81
2023/12/26 03:15:03;;;;;;;0.00;0.00;;;9.90;99.90;;;;;;5070723;28;20032;-78
2023/12/26 03:17:29;;;;;;;0.38;0.17;;;9.90;99.90;;;;;;5048210;28;20123;-77
2023/12/26 03:19:55;;;;;;;4.47;1.10;;;9.90;99.90;;;;;;5067356;28;20033;-77
2023/12/26 03:22:21;;;;;;;0.10;0.10;;;9.90;99.90;;;;;;5048926;28;20185;-80
2023/12/26 03:24:47;;;;;;;0.45;0.45;;;10.00;99.90;;;;;;5068001;28;20505;-76
2023/12/26 03:27:13;;;;;;;2.42;0.20;;;9.90;99.90;;;;;;5067186;28;20044;-82
2023/12/26 03:29:39;;;;;;;0.60;0.30;;;9.90;99.90;;;;;;5064439;28;20048;-80
2023/12/26 03:32:05;;;;;;;0.15;0.15;;;10.10;99.90;;;;;;5065584;28;20049;-78
2023/12/26 03:34:30;;;;;;;0.82;0.40;;;10.10;99.90;;;;;;5066547;28;20479;-79
2023/12/26 03:36:56;;;;;;;0.20;0.20;;;10.10;99.90;;;;;;5073483;28;20070;-77
2023/12/26 03:39:21;;;;;;;0.10;0.10;;;10.00;99.90;;;;;;5092255;28;20036;-79
2023/12/26 03:41:48;;;;;;;5.93;0.20;;;9.70;99.90;;;;;;5050456;28;20103;-76
2023/12/26 03:44:17;;;;;;;0.20;0.20;;;9.30;99.90;;;;;;5071783;28;20425;-75
2023/12/26 03:46:43;;;;;;;1.55;0.10;;;9.00;99.90;;;;;;5070807;28;20470;-79
2023/12/26 03:49:09;;;;;;;0.30;0.20;;;8.70;99.90;;;;;;5080079;28;20570;-80
2023/12/26 03:51:35;;;;;;;0.20;0.20;;;8.60;99.90;;;;;;5075078;28;20040;-79
2023/12/26 03:54:00;;;;;;;0.88;0.28;;;8.50;99.90;;;;;;5061543;28;20541;-79
2023/12/26 03:56:33;;;;;;;0.10;0.10;;;8.50;99.90;;;;;;5066276;28;20033;-79
2023/12/26 03:59:00;;;;;;;0.38;0.25;;;8.40;99.90;;;;;;5064752;28;20052;-84
2023/12/26 04:01:26;;;;;;;0.47;0.10;;;8.30;99.90;;;;;;5063516;28;20397;-83
2023/12/26 04:03:52;;;;;;;0.00;0.00;;;8.20;99.90;;;;;;5069050;28;20047;-78
2023/12/26 04:06:17;;;;;;;0.05;0.05;;;8.10;99.90;;;;;;5067012;28;20036;-77
2023/12/26 04:08:43;;;;;;;0.00;0.00;;;8.10;99.90;;;;;;5070277;28;20037;-77
2023/12/26 04:11:09;;;;;;;0.10;0.10;;;8.10;99.90;;;;;;5067139;28;20086;-79
2023/12/26 04:13:35;;;;;;;0.28;0.28;;;8.10;99.90;;;;;;5068143;28;20557;-77
2023/12/26 04:16:01;;;;;;;0.00;0.00;;;8.10;99.90;;;;;;5065614;28;20036;-80
2023/12/26 04:18:26;;;;;;;1.15;0.77;;;8.10;99.90;;;;;;5060050;28;20036;-81
2023/12/26 04:20:52;;;;;;;0.00;0.00;;;8.20;99.90;;;;;;5070512;28;20040;-78
2023/12/26 04:23:18;;;;;;;0.75;0.75;;;8.20;99.90;;;;;;5067268;28;20040;-73
2023/12/26 04:25:43;;;;;;;0.98;0.47;;;8.20;99.90;;;;;;5067371;28;20049;-81
2023/12/26 04:28:09;;;;;;;0.73;0.25;;;8.20;99.90;;;;;;5067722;28;20082;-79
2023/12/26 04:30:34;;;;;;;1.08;0.30;;;8.10;99.90;;;;;;5069462;28;20249;-78
2023/12/26 04:33:00;;;;;;;0.35;0.28;;;8.10;99.90;;;;;;5071818;28;20546;-75
2023/12/26 04:35:26;;;;;;;0.20;0.20;;;8.10;99.90;;;;;;5052728;28;20032;-76
2023/12/26 04:37:51;;;;;;;0.80;0.10;;;8.20;99.90;;;;;;5064581;28;20065;-80
2023/12/26 04:40:17;;;;;;;0.30;0.30;;;8.10;99.90;;;;;;5067718;28;20057;-78
2023/12/26 04:42:43;;;;;;;1.88;0.43;;;8.10;99.90;;;;;;5050438;28;20090;-79
2023/12/26 04:45:09;;;;;;;0.20;0.20;;;8.10;99.90;;;;;;5065373;28;20037;-80
2023/12/26 04:47:35;;;;;;;0.40;0.40;;;8.20;99.90;;;;;;5060945;28;20052;-79
2023/12/26 04:50:01;;;;;;;0.93;0.32;;;8.10;99.90;;;;;;5065971;28;20043;-79
2023/12/26 04:52:26;;;;;;;1.52;0.15;;;8.10;99.90;;;;;;5064924;28;20590;-81
2023/12/26 04:54:52;;;;;;;0.00;0.00;;;8.10;99.90;;;;;;5049473;28;20518;-80
2023/12/26 04:57:17;;;;;;;0.13;0.13;;;8.00;99.90;;;;;;5066469;28;20197;-81
2023/12/26 04:59:43;;;;;;;0.00;0.00;;;8.00;99.90;;;;;;5069453;28;20036;-77
2023/12/26 05:02:08;;;;;;;0.60;0.52;;;8.00;99.90;;;;;;5061866;28;20036;-77
2023/12/26 05:04:34;;;;;;;6.65;0.40;;;7.90;99.90;;;;;;5050914;28;20040;-78
2023/12/26 05:07:00;;;;;;;0.00;0.00;;;8.00;99.90;;;;;;5064460;28;20041;-80
2023/12/26 05:09:25;;;;;;;0.00;0.00;;;8.00;99.90;;;;;;5069667;28;20028;-80
2023/12/26 05:11:51;;;;;;;8.98;1.10;;;7.90;99.90;;;;;;5059984;28;20043;-79
2023/12/26 05:14:18;;;;;;;0.10;0.10;;;7.80;99.90;;;;;;5084443;28;20036;-79
2023/12/26 05:16:45;;;;;;;0.10;0.10;;;7.90;99.90;;;;;;5066164;28;20542;-79
2023/12/26 05:19:10;;;;;;;0.00;0.00;;;7.90;99.90;;;;;;5064293;28;20075;-79
2023/12/26 05:21:36;;;;;;;0.03;0.03;;;8.00;99.90;;;;;;5049293;28;20502;-78
2023/12/26 05:24:03;;;;;;;0.03;0.03;;;8.10;99.90;;;;;;5066696;28;20091;-77
2023/12/26 05:26:28;;;;;;;0.20;0.20;;;8.10;99.90;;;;;;5065140;28;20052;-76
2023/12/26 05:28:54;;;;;;;0.10;0.10;;;8.10;99.90;;;;;;5050453;28;20538;-79
2023/12/26 05:31:20;;;;;;;0.05;0.05;;;8.10;99.90;;;;;;5049640;28;20039;-78
2023/12/26 05:33:46;;;;;;;0.10;0.10;;;8.20;99.90;;;;;;5066836;28;20064;-75
2023/12/26 05:36:12;;;;;;;0.38;0.10;;;8.20;99.90;;;;;;5065310;28;20060;-78
2023/12/26 05:38:37;;;;;;;2.35;0.10;;;8.30;99.90;;;;;;5049634;28;20048;-76
2023/12/26 05:41:05;;;;;;;0.10;0.10;;;8.30;99.90;;;;;;5068500;28;20039;-78
2023/12/26 05:43:31;;;;;;;1.30;0.40;;;8.30;99.90;;;;;;5062967;28;20055;-78
2023/12/26 05:46:00;;;;;;;0.00;0.00;;;8.40;99.90;;;;;;5061254;28;20045;-75
2023/12/26 05:48:25;;;;;;;1.40;0.70;;;8.40;99.90;;;;;;5064663;28;20029;-82
2023/12/26 05:50:51;;;;;;;0.60;0.60;;;8.50;99.90;;;;;;5063495;28;20043;-73
2023/12/26 05:53:17;;;;;;;1.45;0.20;;;8.50;99.90;;;;;;5064056;28;20123;-77
2023/12/26 05:55:42;;;;;;;0.10;0.10;;;8.60;99.90;;;;;;5069221;28;20364;-74
2023/12/26 05:58:08;;;;;;;0.20;0.20;;;8.60;99.90;;;;;;5063411;28;20037;-70
2023/12/26 06:00:33;;;;;;;0.00;0.00;;;8.70;99.90;;;;;;5070645;28;20108;-76
2023/12/26 06:02:59;;;;;;;0.00;0.00;;;8.70;99.90;;;;;;5068422;28;20040;-77
2023/12/26 06:05:24;;;;;;;0.10;0.10;;;8.80;99.90;;;;;;5065677;28;20036;-72
2023/12/26 06:07:50;;;;;;;0.13;0.13;;;8.80;99.90;;;;;;5066209;28;20391;-74
2023/12/26 06:10:15;;;;;;;0.00;0.00;;;8.80;99.90;;;;;;5064966;28;20033;-77
2023/12/26 06:12:41;;;;;;;0.08;0.08;;;8.80;99.90;;;;;;5064833;28;20417;-74
2023/12/26 06:15:07;;;;;;;0.00;0.00;;;8.80;99.90;;;;;;5063342;28;20036;-76
2023/12/26 06:17:34;;;;;;;0.00;0.00;;;8.80;99.90;;;;;;5063993;28;20036;-72
2023/12/26 06:20:00;;;;;;;16.38;0.40;;;8.80;99.90;;;;;;5064635;28;20107;-77
2023/12/26 06:22:25;;;;;;;1.35;0.30;;;8.80;99.90;;;;;;5064715;28;20590;-72
2023/12/26 06:24:51;;;;;;;0.10;0.10;;;8.80;99.90;;;;;;5056777;28;20067;-73
2023/12/26 06:27:16;;;;;;;0.05;0.05;;;8.80;99.90;;;;;;5062290;28;20491;-67
2023/12/26 06:29:42;;;;;;;0.03;0.03;;;8.80;99.90;;;;;;5073632;28;20051;-76
2023/12/26 06:32:08;;;;;;;0.13;0.10;;;8.80;99.90;;;;;;5070189;28;20691;-76
2023/12/26 06:34:33;;;;;;;0.05;0.05;;;8.80;99.90;;;;;;5061960;28;20047;-77
2023/12/26 06:36:59;;;;;;;0.00;0.00;;;8.80;99.90;;;;;;5060514;28;20032;-75
2023/12/26 06:39:24;;;;;;;0.10;0.10;;;8.70;99.90;;;;;;5066495;28;20040;-72
2023/12/26 06:41:50;;;;;;;0.10;0.10;;;8.70;99.90;;;;;;5064958;28;20035;-76
2023/12/26 06:44:16;;;;;;;3.35;0.20;;;8.70;99.90;;;;;;5070747;28;20517;-78
2023/12/26 06:46:42;;;;;;;1.00;0.50;;;8.70;99.90;;;;;;5072649;28;20510;-70
2023/12/26 06:49:08;;;;;;;0.63;0.30;;;8.70;99.90;;;;;;5068887;28;20048;-74
2023/12/26 06:51:38;;;;;;;0.10;0.10;;;8.70;99.90;;;;;;5054140;28;20044;-79
2023/12/26 06:54:03;;;;;;;0.00;0.00;;;8.70;99.90;;;;;;5066614;28;20483;-73
2023/12/26 06:56:29;;;;;;;0.20;0.05;;;8.70;99.90;;;;;;5067804;28;20035;-74
2023/12/26 06:58:54;;;;;;;0.10;0.10;;;8.60;99.90;;;;;;5067111;28;20109;-73
2023/12/26 07:01:20;;;;;;;7.68;0.95;;;8.60;99.90;;;;;;5071383;28;20036;-74
2023/12/26 07:03:45;;;;;;;0.20;0.15;;;8.60;99.90;;;;;;5068393;28;20394;-71
2023/12/26 07:06:11;;;;;;;0.68;0.68;;;8.60;99.90;;;;;;5065444;28;20448;-79
2023/12/26 07:08:36;;;;;;;7.43;0.13;;;8.60;99.90;;;;;;5066086;28;20082;-74
2023/12/26 07:11:02;;;;;;;0.88;0.10;;;8.60;99.90;;;;;;5069186;28;20079;-73
2023/12/26 07:13:28;;;;;;;5.82;0.20;;;8.60;99.90;;;;;;5067553;28;20040;-78
2023/12/26 07:15:56;;;;;;;0.45;0.20;;;8.60;99.90;;;;;;5068864;28;20041;-74
2023/12/26 07:18:22;;;;;;;0.85;0.63;;;8.60;99.90;;;;;;5068950;28;20086;-74
2023/12/26 07:20:48;;;;;;;0.10;0.10;;;8.70;99.90;;;;;;5067967;28;20115;-76
2023/12/26 07:23:13;;;;;;;0.10;0.10;;;8.60;99.90;;;;;;5064828;28;20149;-76
2023/12/26 07:25:41;;;;;;;0.10;0.10;;;8.70;99.90;;;;;;5060973;28;20033;-77
2023/12/26 07:28:06;;;;;;;1.60;0.20;;;8.60;99.90;;;;;;5062251;28;20041;-79
2023/12/26 07:30:32;;;;;;;0.20;0.20;;;8.60;99.90;;;;;;5095652;28;20541;-71
2023/12/26 07:32:58;;;;;;;0.40;0.40;;;8.60;99.90;;;;;;5065122;28;20048;-74
2023/12/26 07:35:23;;;;;;;0.10;0.10;;;8.60;99.90;;;;;;5069099;28;20033;-76
2023/12/26 07:37:49;;;;;;;0.38;0.38;;;8.60;99.90;;;;;;5064134;28;20082;-73
2023/12/26 07:40:15;;;;;;;0.10;0.10;;;8.60;99.90;;;;;;5065209;28;20380;-69
2023/12/26 07:42:40;;;;;;;0.30;0.30;;;8.60;99.90;;;;;;5063413;28;20597;-74
2023/12/26 07:45:06;;;;;;;0.38;0.38;;;8.60;99.90;;;;;;5068864;28;20060;-71
2023/12/26 07:47:32;;;;;;;0.13;0.13;;;8.50;99.90;;;;;;5064098;28;20037;-76
2023/12/26 07:49:58;;;;;;;1.55;0.75;;;8.50;99.90;;;;;;5067280;28;20040;-74
2023/12/26 07:52:23;;;;;;;0.73;0.57;;;8.50;99.90;;;;;;5070631;28;20388;-73
2023/12/26 07:54:49;;;;;;;0.03;0.03;;;8.50;99.90;;;;;;5069377;28;20529;-74
2023/12/26 07:57:14;;;;;;;0.30;0.20;;;8.40;99.90;;;;;;5066509;28;20037;-76
2023/12/26 07:59:40;;;;;;;3.63;1.20;;;8.50;99.90;;;;;;5102119;28;20562;-74
2023/12/26 08:02:06;;;;;;;0.80;0.40;;;8.50;99.90;;;;;;5059405;28;20814;-76
2023/12/26 08:04:31;;;;;;;3.92;1.45;;;8.50;99.90;;;;;;5067086;28;20028;-75
2023/12/26 08:06:57;;;;;;;0.15;0.15;;;8.50;99.90;;;;;;5063368;28;20440;-74
2023/12/26 08:09:22;;;;;;;0.08;0.08;;;8.50;99.90;;;;;;5064354;28;20523;-74
2023/12/26 08:11:48;;;;;;;8.40;0.45;;;8.40;99.90;;;;;;5063930;28;20071;-74
2023/12/26 08:14:17;;;;;;;0.05;0.05;;;8.40;99.90;;;;;;5065173;28;20028;-74
2023/12/26 08:16:46;;;;;;;1.23;1.13;;;8.40;99.90;;;;;;5061110;28;20040;-75
2023/12/26 08:19:12;;;;;;;16.25;0.63;;;8.40;99.90;;;;;;5053095;28;20064;-75
2023/12/26 08:21:37;;;;;;;1.17;0.10;;;8.30;99.90;;;;;;5051112;28;20063;-71
2023/12/26 08:24:07;;;;;;;0.03;0.03;;;8.30;99.90;;;;;;5054362;28;20048;-77
2023/12/26 08:26:33;;;;;;;0.38;0.25;;;8.30;99.90;;;;;;5064066;28;20177;-74
2023/12/26 08:28:59;;;;;;;0.10;0.10;;;8.30;99.90;;;;;;5049958;28;20538;-77
2023/12/26 08:31:24;;;;;;;0.10;0.10;;;8.30;99.90;;;;;;5066640;28;20052;-70
2023/12/26 08:33:50;;;;;;;0.10;0.10;;;8.20;99.90;;;;;;5059140;28;20479;-76
2023/12/26 08:36:16;;;;;;;0.08;0.08;;;8.20;99.90;;;;;;5070544;28;20131;-74
2023/12/26 08:38:42;;;;;;;0.10;0.10;;;8.20;99.90;;;;;;5063548;28;20033;-76
2023/12/26 08:41:10;;;;;;;0.40;0.40;;;8.10;99.90;;;;;;5067316;28;20506;-74
2023/12/26 08:43:35;;;;;;;0.30;0.30;;;8.10;99.90;;;;;;5076987;28;20036;-77
2023/12/26 08:46:01;;;;;;;3.10;0.47;;;8.10;99.90;;;;;;5047034;28;20051;-75
2023/12/26 08:48:26;;;;;;;1.27;0.45;;;8.20;99.90;;;;;;5061825;28;20526;-73
2023/12/26 08:50:53;;;;;;;0.10;0.10;;;8.30;99.90;;;;;;5050008;28;20045;-72
2023/12/26 08:53:19;;;;;;;0.08;0.08;;;8.40;99.90;;;;;;5056628;28;20048;-76
2023/12/26 08:55:46;;;;;;;1.42;1.38;;;8.40;99.90;;;;;;5080364;28;20037;-74
2023/12/26 08:58:12;;;;;;;0.10;0.10;;;8.40;99.90;;;;;;5069991;28;20043;-80
2023/12/26 09:00:38;;;;;;;10.38;1.00;;;8.40;99.90;;;;;;5069097;28;20041;-77
2023/12/26 09:03:04;;;;;;;0.35;0.35;;;8.40;99.90;;;;;;5049887;28;20032;-78
2023/12/26 09:05:29;;;;;;;2.42;0.68;;;8.40;99.90;;;;;;5068277;28;20113;-76
2023/12/26 09:07:55;;;;;;;0.55;0.15;;;8.40;99.90;;;;;;5063702;28;20073;-74
2023/12/26 09:10:20;;;;;;;2.00;1.85;;;8.40;99.90;;;;;;5047103;28;20043;-73
2023/12/26 09:12:46;;;;;;;0.05;0.05;;;8.50;99.90;;;;;;5064112;28;20024;-73
2023/12/26 09:15:12;;;;;;;0.50;0.17;;;8.40;99.90;;;;;;5066633;28;20025;-75
2023/12/26 09:17:37;;;;;;;0.75;0.70;;;8.40;99.90;;;;;;5058200;28;20077;-75
2023/12/26 09:20:03;;;;;;;0.52;0.52;;;8.40;99.90;;;;;;5064113;28;20039;-73
2023/12/26 09:22:29;;;;;;;4.95;1.40;;;8.50;99.90;;;;;;5064329;28;20129;-78
2023/12/26 09:24:55;;;;;;;0.10;0.10;;;8.50;99.90;;;;;;5064590;28;20047;-73
2023/12/26 09:27:20;;;;;;;0.63;0.22;;;8.50;99.90;;;;;;5063510;28;20431;-73
2023/12/26 09:29:46;;;;;;;0.30;0.20;;;8.50;99.90;;;;;;5065633;28;20045;-74
2023/12/26 09:32:12;;;;;;;1.80;0.77;;;8.50;99.90;;;;;;5058533;28;20082;-76
2023/12/26 09:34:38;;;;;;;0.00;0.00;;;8.50;99.90;;;;;;5051762;28;20051;-73
2023/12/26 09:37:03;;;;;;;0.55;0.55;;;8.50;99.90;;;;;;5049091;28;20484;-74
2023/12/26 09:39:29;;;;;;;0.03;0.03;;;8.50;99.90;;;;;;5065263;28;20040;-76
2023/12/26 09:41:56;;;;;;;0.00;0.00;;;8.60;99.90;;;;;;5064584;28;20041;-76
2023/12/26 09:44:22;;;;;;;0.15;0.15;;;8.60;99.90;;;;;;5065446;28;20131;-78
2023/12/26 09:46:48;;;;;;;0.00;0.00;;;8.70;99.90;;;;;;5066011;28;20547;-78
2023/12/26 09:49:15;;;;;;;0.22;0.22;;;8.70;99.90;;;;;;5053046;28;20045;-78
2023/12/26 09:51:44;;;;;;;1.05;0.95;;;8.70;99.90;;;;;;5061092;28;20064;-76
2023/12/26 09:54:12;;;;;;;0.47;0.17;;;8.80;99.90;;;;;;5057002;28;20041;-78
2023/12/26 09:56:42;;;;;;;2.03;1.58;;;8.80;99.90;;;;;;5050909;28;20040;-73
2023/12/26 09:59:07;;;;;;;1.95;0.52;;;8.80;99.90;;;;;;5061452;28;20079;-77
2023/12/26 10:01:33;;;;;;;1.90;1.77;;;8.80;99.90;;;;;;5065649;28;20076;-77
2023/12/26 10:03:59;;;;;;;1.13;0.38;;;8.80;99.90;;;;;;5061915;28;20043;-75
2023/12/26 10:06:25;;;;;;;0.22;0.22;;;8.80;99.90;;;;;;5091769;28;20076;-78
2023/12/26 10:08:51;;;;;;;3.38;0.98;;;8.90;99.90;;;;;;5044126;28;20064;-73
2023/12/26 10:11:16;;;;;;;2.75;0.35;;;9.00;99.90;;;;;;5062022;28;20078;-76
2023/12/26 10:13:43;;;;;;;0.75;0.17;;;9.10;99.90;;;;;;5061937;28;20037;-73
2023/12/26 10:16:09;;;;;;;0.20;0.20;;;9.10;99.90;;;;;;5059087;28;20037;-77
2023/12/26 10:18:34;;;;;;;0.38;0.38;;;9.20;99.90;;;;;;5063112;28;20041;-78
2023/12/26 10:21:00;;;;;;;0.43;0.43;;;9.10;99.90;;;;;;5066926;28;20043;-74
2023/12/26 10:23:28;;;;;;;0.85;0.85;;;9.20;99.90;;;;;;5066642;28;20029;-75
2023/12/26 10:25:53;;;;;;;2.80;0.40;;;9.20;99.90;;;;;;5065344;28;20127;-76
2023/12/26 10:28:19;;;;;;;0.00;0.00;;;9.20;99.90;;;;;;5066620;28;20571;-74
2023/12/26 10:30:44;;;;;;;6.35;1.85;;;9.20;99.90;;;;;;5076274;28;20051;-75
2023/12/26 10:33:10;;;;;;;1.55;0.50;;;9.20;99.90;;;;;;5047564;28;20036;-77
2023/12/26 10:35:36;;;;;;;0.43;0.43;;;9.20;99.90;;;;;;5057538;28;20082;-79
2023/12/26 10:38:02;;;;;;;1.75;0.65;;;9.20;99.90;;;;;;5060950;28;20052;-70
2023/12/26 10:40:27;;;;;;;1.45;0.40;;;9.20;99.90;;;;;;5069790;28;20029;-76
2023/12/26 10:42:54;;;;;;;0.25;0.20;;;9.20;99.90;;;;;;5058180;28;20048;-78
2023/12/26 10:45:20;;;;;;;0.75;0.75;;;9.20;99.90;;;;;;5071954;28;20435;-79
2023/12/26 10:47:48;;;;;;;7.53;2.70;;;9.20;99.90;;;;;;5077296;28;20523;-76
2023/12/26 10:50:19;;;;;;;0.57;0.57;;;9.20;99.90;;;;;;5064016;28;20041;-75
2023/12/26 10:52:52;;;;;;;2.42;1.55;;;9.20;99.90;;;;;;5051857;28;20043;-76
2023/12/26 10:55:19;;;;;;;6.03;0.43;;;9.20;99.90;;;;;;5064491;28;20037;-77
2023/12/26 10:57:46;;;;;;;0.20;0.20;;;9.20;99.90;;;;;;5034859;28;20041;-73
2023/12/26 11:00:12;;;;;;;0.00;0.00;;;9.20;99.90;;;;;;5065752;28;20120;-75
2023/12/26 11:02:40;;;;;;;0.10;0.10;;;9.30;99.90;;;;;;5055920;28;20045;-77
2023/12/26 11:05:05;;;;;;;0.30;0.05;;;9.30;99.90;;;;;;5064105;28;20075;-78
2023/12/26 11:07:31;;;;;;;0.20;0.10;;;9.30;99.90;;;;;;5054003;28;20475;-72
2023/12/26 11:09:57;;;;;;;1.05;0.63;;;9.30;99.90;;;;;;5061294;28;20076;-76
2023/12/26 11:12:22;;;;;;;0.30;0.30;;;9.40;99.90;;;;;;5051724;28;20098;-76
2023/12/26 11:14:48;;;;;;;2.20;1.52;;;9.40;99.90;;;;;;5063804;28;20040;-72
2023/12/26 11:17:15;;;;;;;5.57;1.77;;;9.40;99.90;;;;;;5066311;28;20127;-78
2023/12/26 11:19:41;;;;;;;0.32;0.17;;;9.50;99.90;;;;;;5055641;28;20120;-79
2023/12/26 11:22:08;;;;;;;0.13;0.13;;;9.50;99.90;;;;;;5070087;28;20041;-72
2023/12/26 11:24:33;;;;;;;5.13;0.45;;;9.60;99.90;;;;;;5050585;28;20045;-77
2023/12/26 11:26:59;;;;;;;0.80;0.47;;;9.60;99.90;;;;;;5053153;28;20487;-77
2023/12/26 11:29:26;;;;;;;0.10;0.10;;;9.60;99.90;;;;;;5059119;28;20067;-81
2023/12/26 11:31:52;;;;;;;0.10;0.10;;;9.50;99.90;;;;;;5055678;28;20082;-74
2023/12/26 11:34:17;;;;;;;1.30;0.63;;;9.60;99.90;;;;;;5059474;28;20491;-70
2023/12/26 11:36:45;;;;;;;0.10;0.10;;;9.50;99.90;;;;;;5053561;28;20049;-76
2023/12/26 11:39:15;;;;;;;0.35;0.30;;;9.40;99.90;;;;;;5057537;28;20090;-78
2023/12/26 11:41:41;;;;;;;5.95;0.85;;;9.50;99.90;;;;;;5081260;28;20127;-79
2023/12/26 11:44:07;;;;;;;2.10;0.55;;;9.40;99.90;;;;;;5050754;28;20179;-76
2023/12/26 11:46:32;;;;;;;0.20;0.20;;;9.30;99.90;;;;;;5052436;28;20513;-76
2023/12/26 11:48:58;;;;;;;6.18;1.13;;;9.30;99.90;;;;;;5054273;28;20395;-73
2023/12/26 11:51:23;;;;;;;0.30;0.30;;;9.30;99.90;;;;;;5057769;28;20088;-77
2023/12/26 11:53:49;;;;;;;3.92;0.15;;;9.40;99.90;;;;;;5074396;28;20091;-74
2023/12/26 11:56:14;;;;;;;0.63;0.30;;;9.30;99.90;;;;;;5050982;28;20484;-79
2023/12/26 11:58:40;;;;;;;0.20;0.20;;;9.30;99.90;;;;;;5051049;28;20383;-78
2023/12/26 12:01:06;;;;;;;2.80;0.30;;;9.30;99.90;;;;;;5063136;28;20068;-74
2023/12/26 12:03:32;;;;;;;0.50;0.13;;;9.30;99.90;;;;;;5054723;28;20535;-77
2023/12/26 12:06:14;;;;;;;1.98;1.30;;;9.30;99.90;;;;;;5054817;28;20032;-72
2023/12/26 12:09:03;;;;;;;0.63;0.63;;;9.30;99.90;;;;;;5068395;28;20058;-74
2023/12/26 12:11:28;;;;;;;0.00;0.00;;;9.30;99.90;;;;;;5068822;28;20097;-74
2023/12/26 12:13:54;;;;;;;2.92;2.38;;;9.30;99.90;;;;;;5066596;28;20094;-75
2023/12/26 12:16:26;;;;;;;2.22;0.85;;;9.30;99.90;;;;;;5058507;28;20055;-76
2023/12/26 12:19:02;;;;;;;0.10;0.10;;;9.30;99.90;;;;;;5065813;28;20151;-72
2023/12/26 12:21:37;;;;;;;0.25;0.25;;;9.40;99.90;;;;;;5067190;28;20028;-76
2023/12/26 12:24:06;;;;;;;0.25;0.25;;;9.40;99.90;;;;;;5065558;28;20037;-76
2023/12/26 12:27:06;;;;;;;0.35;0.17;;;9.40;99.90;;;;;;5065450;28;20522;-71
2023/12/26 12:29:57;;;;;;;2.45;0.98;;;9.50;99.90;;;;;;5062634;28;20421;-66
2023/12/26 12:32:33;;;;;;;0.30;0.30;;;9.50;99.90;;;;;;5062950;28;20500;-68
2023/12/26 12:35:18;;;;;;;0.38;0.32;;;9.50;99.90;;;;;;5084710;28;20060;-67
2023/12/26 12:37:47;;;;;;;0.13;0.13;;;9.40;99.90;;;;;;5069424;28;20053;-68
2023/12/26 12:40:12;;;;;;;0.10;0.10;;;9.50;99.90;;;;;;5061788;28;20127;-67
2023/12/26 12:42:38;;;;;;;2.25;0.20;;;9.50;99.90;;;;;;5089208;28;20127;-69
2023/12/26 12:45:04;;;;;;;1.02;0.75;;;9.50;99.90;;;;;;5061175;28;20783;-67
2023/12/26 12:47:31;;;;;;;0.10;0.10;;;9.40;99.90;;;;;;5067097;28;20611;-71
2023/12/26 12:49:57;;;;;;;0.25;0.25;;;9.40;99.90;;;;;;5063510;28;20139;-69